Time;durP1;ratioP1;P1;durP2;ratioP2;P2;SDS_P1;SDS_P2;PMS_P1;PMS_P2;Temp;Humidity;BMP_temperature;BMP_pressure;BME280_temperature;BME280_humidity;BME280_pressure;Samples;Min_cycle;Max_cycle;Signal;HPM_P1;HPM_P2
2022/06/11 00:01:54;;;;;;;12.23;4.63;;;;;;;22.50;58.35;100457.88;5074514;28;20132;-71
2022/06/11 00:04:34;;;;;;;17.83;4.07;;;;;;;22.40;58.69;100456.38;5074768;28;20131;-71
2022/06/11 00:07:09;;;;;;;12.68;4.20;;;;;;;22.38;58.74;100457.91;5074589;28;20048;-71
2022/06/11 00:09:36;;;;;;;12.77;4.18;;;;;;;22.00;58.87;100403.19;5073137;28;20159;-71
2022/06/11 00:12:04;;;;;;;14.80;4.50;;;;;;;22.36;59.06;100448.91;5073804;28;20076;-70
2022/06/11 00:14:32;;;;;;;18.30;4.38;;;;;;;22.31;58.53;100446.34;5073928;28;20080;-71
2022/06/11 00:17:01;;;;;;;21.50;5.35;;;;;;;22.44;58.63;100454.44;5074355;28;20093;-70
2022/06/11 00:19:30;;;;;;;12.45;4.65;;;;;;;22.46;58.77;100454.06;5073718;28;20049;-70
2022/06/11 00:21:57;;;;;;;14.25;4.82;;;;;;;22.30;59.17;100442.66;5074350;28;20475;-70
2022/06/11 00:24:25;;;;;;;19.67;5.47;;;;;;;22.42;59.21;100458.84;5072555;28;20095;-71
2022/06/11 00:26:55;;;;;;;37.53;17.83;;;;;;;22.50;58.70;100460.72;5073913;28;20107;-71
2022/06/11 00:29:24;;;;;;;13.02;5.18;;;;;;;22.38;58.92;100435.97;5082887;28;20087;-71
2022/06/11 00:31:51;;;;;;;17.63;5.97;;;;;;;22.48;59.35;100452.53;5094114;28;20087;-70
2022/06/11 00:34:19;;;;;;;15.38;5.10;;;;;;;22.46;59.29;100454.91;5093948;28;20094;-70
2022/06/11 00:36:47;;;;;;;18.80;4.45;;;;;;;22.39;59.34;100443.34;5093966;28;20084;-70
2022/06/11 00:39:17;;;;;;;14.63;4.28;;;;;;;22.47;59.17;100439.50;5092729;28;20090;-70
2022/06/11 00:41:46;;;;;;;17.52;4.93;;;;;;;22.46;59.36;100437.00;5094110;28;20463;-71
2022/06/11 00:44:14;;;;;;;22.70;5.78;;;;;;;22.47;59.24;100436.66;5092912;28;20082;-71
2022/06/11 00:47:22;;;;;;;12.05;4.10;;;;;;;22.43;59.33;100432.06;5084850;28;20082;-71
2022/06/11 00:49:53;;;;;;;23.38;5.22;;;;;;;22.38;59.53;100426.63;5031467;28;20099;-71
2022/06/11 00:52:27;;;;;;;13.60;4.45;;;;;;;22.40;59.65;100436.44;5083742;28;20490;-71
2022/06/11 00:55:11;;;;;;;13.10;4.45;;;;;;;22.31;59.55;100418.72;5092791;28;20055;-70
2022/06/11 00:57:58;;;;;;;12.98;4.13;;;;;;;22.37;59.35;100425.78;5093646;28;20131;-70
2022/06/11 01:00:49;;;;;;;15.18;3.83;;;;;;;22.34;59.45;100423.69;5093419;28;20101;-71
2022/06/11 01:03:21;;;;;;;15.95;4.05;;;;;;;22.34;59.69;100435.06;5093009;28;20056;-71
2022/06/11 01:06:00;;;;;;;14.68;3.97;;;;;;;22.19;59.78;100410.25;5093605;28;20044;-71
2022/06/11 01:08:44;;;;;;;15.27;4.93;;;;;;;22.38;59.63;100429.47;5093818;28;20538;-71
2022/06/11 01:11:46;;;;;;;16.15;5.03;;;;;;;22.33;59.38;100424.88;5093596;28;20134;-71
2022/06/11 01:14:31;;;;;;;18.23;4.53;;;;;;;22.34;59.27;100423.69;5093501;28;20499;-71
2022/06/11 01:17:14;;;;;;;13.98;4.45;;;;;;;22.18;59.56;100408.56;5093445;28;20119;-70
2022/06/11 01:20:02;;;;;;;17.35;5.05;;;;;;;22.27;59.53;100417.78;5089234;28;20095;-71
2022/06/11 01:22:34;;;;;;;18.90;4.15;;;;;;;22.22;59.85;100415.19;5073065;28;20139;-70
2022/06/11 01:25:52;;;;;;;10.73;4.53;;;;;;;22.09;59.91;100417.25;5075214;28;20134;-72
2022/06/11 01:28:40;;;;;;;12.60;5.13;;;;;;;22.14;59.86;100422.66;5081455;28;20044;-72
2022/06/11 01:31:22;;;;;;;17.55;5.05;;;;;;;22.16;59.80;100419.50;5098479;28;20049;-71
2022/06/11 01:34:13;;;;;;;12.77;4.43;;;;;;;22.20;59.64;100418.41;5098661;28;20060;-71
2022/06/11 01:36:43;;;;;;;15.50;4.25;;;;;;;22.11;59.88;100411.19;5099266;28;20028;-71
2022/06/11 01:39:13;;;;;;;17.42;4.95;;;;;;;22.19;59.98;100425.31;5098515;28;20029;-70
2022/06/11 01:41:58;;;;;;;15.07;5.07;;;;;;;22.12;60.25;100412.84;5100734;28;20028;-71
2022/06/11 01:44:36;;;;;;;15.63;4.43;;;;;;;22.03;60.27;100398.78;5102345;28;20036;-71
2022/06/11 01:47:04;;;;;;;11.13;4.05;;;;;;;22.11;60.37;100406.31;5118290;28;20079;-71
2022/06/11 01:49:39;;;;;;;19.80;4.53;;;;;;;22.17;60.19;100412.63;5122622;28;20028;-72
2022/06/11 01:52:48;;;;;;;15.80;5.25;;;;;;;22.15;60.08;100417.84;5122945;28;20039;-71
2022/06/11 01:55:25;;;;;;;14.05;5.20;;;;;;;22.14;60.39;100424.69;5077546;28;20053;-73
2022/06/11 01:58:18;;;;;;;18.77;5.10;;;;;;;22.11;60.42;100419.72;5081383;28;20095;-70
2022/06/11 02:00:59;;;;;;;13.95;5.28;;;;;;;21.98;60.34;100404.72;5101589;28;20056;-70
2022/06/11 02:03:51;;;;;;;15.05;4.60;;;;;;;22.08;60.54;100420.44;5102230;28;20029;-71
2022/06/11 02:06:30;;;;;;;12.57;4.75;;;;;;;22.10;60.42;100430.28;5101979;28;20055;-72
2022/06/11 02:09:27;;;;;;;12.83;4.37;;;;;;;22.04;60.26;100413.81;5101961;28;20048;-72
2022/06/11 02:12:06;;;;;;;14.02;4.05;;;;;;;22.01;60.41;100399.13;5102842;28;20025;-71
2022/06/11 02:14:49;;;;;;;21.50;4.90;;;;;;;22.06;59.99;100412.28;5101852;28;20032;-70
2022/06/11 02:17:25;;;;;;;13.38;5.20;;;;;;;22.10;60.29;100415.22;5102006;28;20056;-72
2022/06/11 02:20:07;;;;;;;20.23;5.57;;;;;;;22.08;60.09;100404.19;5101821;28;20028;-72
2022/06/11 02:23:00;;;;;;;15.13;4.97;;;;;;;22.05;60.03;100412.63;5101907;28;20029;-71
2022/06/11 02:25:37;;;;;;;14.32;4.45;;;;;;;22.04;60.22;100405.31;5112678;28;20044;-70
2022/06/11 02:28:09;;;;;;;23.20;4.82;;;;;;;21.88;60.37;100386.19;5121469;28;20032;-70
2022/06/11 02:30:40;;;;;;;14.13;5.47;;;;;;;21.95;60.31;100402.63;5122359;28;20039;-71
2022/06/11 02:33:12;;;;;;;25.02;6.00;;;;;;;22.07;60.31;100407.41;5121611;28;20035;-70
2022/06/11 02:35:42;;;;;;;17.45;4.65;;;;;;;22.05;60.20;100418.31;5122178;28;20052;-71
2022/06/11 02:38:13;;;;;;;14.45;4.60;;;;;;;22.01;59.88;100390.59;5120290;28;20394;-70
2022/06/11 02:40:56;;;;;;;14.93;5.05;;;;;;;22.15;60.08;100413.00;5113067;28;20044;-70
2022/06/11 02:43:23;;;;;;;15.02;5.75;;;;;;;22.05;59.81;100401.25;5096634;28;20493;-71
2022/06/11 02:45:50;;;;;;;14.07;5.95;;;;;;;22.03;59.89;100400.81;5082320;28;20051;-71
2022/06/11 02:48:17;;;;;;;18.95;5.95;;;;;;;21.99;60.34;100395.03;5076093;28;20052;-71
2022/06/11 02:50:46;;;;;;;10.32;4.82;;;;;;;22.03;60.21;100403.66;5074690;28;20098;-71
2022/06/11 02:53:15;;;;;;;13.73;4.80;;;;;;;22.03;60.26;100403.66;5075507;28;20084;-71
2022/06/11 02:55:44;;;;;;;14.73;5.78;;;;;;;22.03;60.10;100409.34;5075967;28;20196;-71
2022/06/11 02:58:12;;;;;;;13.45;5.38;;;;;;;22.04;59.99;100399.59;5075251;28;20087;-71
2022/06/11 03:00:46;;;;;;;23.50;6.35;;;;;;;22.05;59.68;100395.56;5075369;28;20107;-71
2022/06/11 03:03:13;;;;;;;24.35;6.60;;;;;;;22.07;59.80;100396.03;5092156;28;20485;-71
2022/06/11 03:05:41;;;;;;;19.48;5.53;;;;;;;22.10;59.83;100401.84;5095442;28;20193;-70
2022/06/11 03:08:09;;;;;;;14.25;4.57;;;;;;;22.06;59.54;100389.53;5094426;28;20139;-71
2022/06/11 03:10:37;;;;;;;22.17;5.32;;;;;;;22.19;59.83;100407.41;5096032;28;20463;-70
2022/06/11 03:13:05;;;;;;;16.73;5.57;;;;;;;22.14;59.69;100411.28;5095689;28;20044;-71
2022/06/11 03:15:33;;;;;;;16.77;5.10;;;;;;;21.99;59.87;100395.84;5093728;28;20126;-70
2022/06/11 03:18:00;;;;;;;18.27;6.05;;;;;;;22.06;59.66;100414.31;5094271;28;20135;-71
2022/06/11 03:20:30;;;;;;;19.27;6.60;;;;;;;21.87;59.57;100380.84;5094375;28;20116;-71
2022/06/11 03:22:57;;;;;;;20.23;5.55;;;;;;;21.89;59.74;100390.66;5095108;28;20134;-71
2022/06/11 03:25:24;;;;;;;15.73;6.05;;;;;;;21.94;59.58;100410.31;5095149;28;20569;-70
2022/06/11 03:27:51;;;;;;;20.10;5.78;;;;;;;21.75;59.86;100373.19;5095293;28;20506;-71
2022/06/11 03:30:18;;;;;;;16.10;6.90;;;;;;;21.79;60.16;100385.50;5095184;28;20161;-70
2022/06/11 03:32:47;;;;;;;15.02;4.90;;;;;;;21.83;59.86;100389.25;5095259;28;20075;-71
2022/06/11 03:35:15;;;;;;;16.67;5.93;;;;;;;21.57;60.17;100349.91;5095143;28;20131;-71
2022/06/11 03:37:42;;;;;;;20.30;5.63;;;;;;;21.79;60.23;100387.50;5074602;28;20140;-71
2022/06/11 03:40:11;;;;;;;19.20;6.18;;;;;;;21.76;60.52;100404.09;5074609;28;20063;-71
2022/06/11 03:42:38;;;;;;;17.55;5.07;;;;;;;21.65;60.52;100399.28;5075059;28;20509;-71
2022/06/11 03:45:06;;;;;;;18.35;5.95;;;;;;;21.76;60.49;100406.09;5081304;28;20135;-70
2022/06/11 03:47:33;;;;;;;15.82;6.55;;;;;;;21.66;60.38;100403.78;5094549;28;20044;-71
2022/06/11 03:50:00;;;;;;;23.05;9.38;;;;;;;21.69;60.53;100408.75;5093355;28;20439;-70
2022/06/11 03:52:28;;;;;;;24.05;6.70;;;;;;;21.53;60.80;100389.56;5092530;28;20079;-71
2022/06/11 03:54:56;;;;;;;18.23;5.18;;;;;;;21.63;60.60;100410.16;5074712;28;20079;-71
2022/06/11 03:57:23;;;;;;;19.58;5.93;;;;;;;21.59;60.64;100404.38;5074163;28;20541;-71
2022/06/11 03:59:50;;;;;;;15.05;5.50;;;;;;;21.55;60.61;100402.63;5074427;28;20072;-70
2022/06/11 04:02:18;;;;;;;23.15;6.35;;;;;;;21.60;60.60;100416.56;5074254;28;20080;-70
2022/06/11 04:04:45;;;;;;;17.73;6.63;;;;;;;;;;5078081;28;20083;-69
2022/06/11 04:07:13;;;;;;;16.13;5.63;;;;;;;21.63;60.45;100410.16;5093303;28;20050;-71
2022/06/11 04:09:42;;;;;;;14.93;5.97;;;;;;;21.64;60.56;100420.34;5093368;28;20498;-71
2022/06/11 04:12:15;;;;;;;17.55;4.72;;;;;;;21.49;59.99;100391.50;5094196;28;20121;-70
2022/06/11 04:14:46;;;;;;;17.50;5.13;;;;;;;;;;5094262;28;20044;-71
2022/06/11 04:17:23;;;;;;;21.05;6.07;;;;;;;21.59;60.26;100406.41;5093963;28;20590;-70
2022/06/11 04:19:51;;;;;;;20.25;6.53;;;;;;;21.47;60.00;100391.03;5094135;28;20048;-70
2022/06/11 04:22:19;;;;;;;17.95;5.40;;;;;;;21.49;60.17;100405.69;5093995;28;20083;-72
2022/06/11 04:24:46;;;;;;;21.15;5.97;;;;;;;21.63;60.37;100418.69;5094033;28;20135;-71
2022/06/11 04:27:16;;;;;;;21.58;5.90;;;;;;;21.61;60.31;100418.25;5085079;28;20156;-71
2022/06/11 04:29:47;;;;;;;17.55;6.07;;;;;;;21.53;60.57;100412.31;5074011;28;20072;-70
2022/06/11 04:32:17;;;;;;;13.98;6.20;;;;;;;21.42;60.41;100399.78;5073611;28;20087;-71
2022/06/11 04:34:47;;;;;;;13.88;5.95;;;;;;;21.59;60.61;100429.13;5073583;28;20498;-72
2022/06/11 04:37:17;;;;;;;24.52;5.55;;;;;;;21.60;60.48;100433.63;5073837;28;20439;-70
2022/06/11 04:39:48;;;;;;;18.13;6.15;;;;;;;21.63;60.93;100441.44;5073786;28;20136;-71
2022/06/11 04:42:16;;;;;;;16.88;6.03;;;;;;;21.59;60.59;100426.28;5073741;28;20102;-70
2022/06/11 04:44:44;;;;;;;12.70;5.15;;;;;;;21.63;60.85;100438.59;5085039;28;20060;-71
2022/06/11 04:47:14;;;;;;;22.08;5.90;;;;;;;21.57;61.18;100429.47;5093741;28;20078;-72
2022/06/11 04:49:41;;;;;;;18.10;6.22;;;;;;;21.43;61.20;100411.97;5092292;28;20138;-72
2022/06/11 04:52:08;;;;;;;20.50;5.97;;;;;;;21.19;61.39;100392.91;5075574;28;20499;-72
2022/06/11 04:54:35;;;;;;;19.42;5.38;;;;;;;21.51;61.50;100443.13;5092470;28;20082;-72
2022/06/11 04:57:02;;;;;;;17.20;5.30;;;;;;;21.48;61.50;100431.63;5093425;28;20461;-71
2022/06/11 04:59:32;;;;;;;17.27;5.28;;;;;;;21.30;61.26;100411.16;5093616;28;20054;-71
2022/06/11 05:02:00;;;;;;;;;;;;;;;21.41;61.09;100432.22;5078483;28;20075;-71
2022/06/11 05:04:27;;;;;;;16.80;6.00;;;;;;;21.43;61.50;100432.69;5072212;28;19943;-71
2022/06/11 05:06:54;;;;;;;23.83;7.45;;;;;;;21.41;61.41;100426.56;5073251;28;20107;-71
2022/06/11 05:09:24;;;;;;;16.95;5.78;;;;;;;21.44;61.66;100428.69;5072991;28;20139;-72
2022/06/11 05:11:52;;;;;;;20.38;6.68;;;;;;;21.36;61.42;100404.06;5073321;28;20048;-72
2022/06/11 05:14:20;;;;;;;15.95;6.35;;;;;;;21.32;61.83;100410.78;5072887;28;20052;-71
2022/06/11 05:16:48;;;;;;;18.13;6.88;;;;;;;21.34;61.78;100403.59;5072018;28;20087;-72
2022/06/11 05:19:18;;;;;;;17.60;5.60;;;;;;;21.51;61.54;100428.91;5089094;28;20078;-71
2022/06/11 05:21:47;;;;;;;24.10;6.95;;;;;;;21.48;61.50;100435.31;5091926;28;20135;-71
2022/06/11 05:24:14;;;;;;;20.67;7.25;;;;;;;21.36;61.17;100431.63;5092876;28;20084;-72
2022/06/11 05:26:49;;;;;;;19.70;6.57;;;;;;;21.33;61.02;100421.78;5092908;28;20040;-71
2022/06/11 05:29:35;;;;;;;21.15;8.02;;;;;;;21.51;61.16;100442.28;5093048;28;20055;-71
2022/06/11 05:32:02;;;;;;;20.17;7.28;;;;;;;21.51;60.99;100443.13;5093395;28;20075;-71
2022/06/11 05:34:30;;;;;;;18.17;6.30;;;;;;;21.45;61.04;100460.75;5090313;28;20683;-72
2022/06/11 05:36:58;;;;;;;23.80;6.90;;;;;;;21.41;61.33;100460.66;5072736;28;20041;-71
2022/06/11 05:39:26;;;;;;;27.95;8.65;;;;;;;21.45;60.92;100478.63;5072633;28;20570;-71
2022/06/11 05:41:53;;;;;;;20.45;7.75;;;;;;;21.29;61.31;100477.66;5071758;28;20462;-71
2022/06/11 05:44:21;;;;;;;21.20;7.82;;;;;;;21.40;61.19;100470.34;5081796;28;20135;-71
2022/06/11 05:46:49;;;;;;;23.58;7.57;;;;;;;21.50;61.07;100472.72;5093081;28;20406;-71
2022/06/11 05:49:21;;;;;;;30.80;8.05;;;;;;;21.45;61.41;100463.59;5087366;28;20189;-71
2022/06/11 05:51:54;;;;;;;19.42;6.38;;;;;;;21.37;61.45;100447.50;5077214;28;20140;-70
2022/06/11 05:54:25;;;;;;;21.42;6.32;;;;;;;21.21;61.55;100421.81;5093204;28;20127;-71
2022/06/11 05:56:53;;;;;;;20.02;6.95;;;;;;;21.34;61.72;100454.72;5093134;28;20494;-71
2022/06/11 05:59:29;;;;;;;17.13;6.50;;;;;;;21.30;61.94;100448.09;5092856;28;20489;-70
2022/06/11 06:02:00;;;;;;;22.70;6.65;;;;;;;21.16;61.86;100413.50;5091843;28;20080;-71
2022/06/11 06:04:27;;;;;;;21.10;6.50;;;;;;;21.42;61.72;100427.38;5092928;28;20079;-70
2022/06/11 06:06:54;;;;;;;19.77;6.03;;;;;;;21.60;61.53;100428.75;5092704;28;20091;-71
2022/06/11 06:09:21;;;;;;;18.17;6.25;;;;;;;21.28;61.38;100393.63;5083130;28;20135;-71
2022/06/11 06:11:48;;;;;;;14.52;6.50;;;;;;;21.32;61.67;100422.97;5072406;28;20098;-70
2022/06/11 06:14:14;;;;;;;17.95;6.00;;;;;;;21.04;61.80;100395.31;5072299;28;20132;-70
2022/06/11 06:16:41;;;;;;;16.23;5.68;;;;;;;21.12;61.77;100387.00;5072524;28;20069;-71
2022/06/11 06:19:08;;;;;;;18.88;6.05;;;;;;;21.27;61.62;100417.53;5072657;28;20418;-70
2022/06/11 06:21:37;;;;;;;13.85;6.10;;;;;;;21.17;61.65;100416.00;5072525;28;20083;-70
2022/06/11 06:24:04;;;;;;;20.83;6.30;;;;;;;21.19;61.44;100438.34;5072496;28;20449;-71
2022/06/11 06:26:31;;;;;;;21.70;6.50;;;;;;;21.04;61.64;100420.84;5073074;28;20174;-71
2022/06/11 06:28:58;;;;;;;14.90;5.90;;;;;;;21.09;61.95;100436.00;5075742;28;20087;-71
2022/06/11 06:31:26;;;;;;;26.27;7.32;;;;;;;21.06;61.93;100446.91;5076243;28;20049;-71
2022/06/11 06:33:56;;;;;;;15.40;6.13;;;;;;;21.07;61.81;100450.56;5075682;28;20097;-71
2022/06/11 06:36:23;;;;;;;24.35;6.45;;;;;;;20.94;62.05;100434.69;5074672;28;20087;-71
2022/06/11 06:38:51;;;;;;;15.80;6.55;;;;;;;21.12;62.03;100458.00;5076088;28;20127;-71
2022/06/11 06:41:19;;;;;;;24.65;7.00;;;;;;;21.15;61.85;100454.47;5075642;28;20080;-70
2022/06/11 06:43:46;;;;;;;19.38;6.97;;;;;;;21.12;62.12;100458.00;5080582;28;20128;-70
2022/06/11 06:46:14;;;;;;;21.38;6.63;;;;;;;21.20;62.19;100451.41;5095933;28;20055;-70
2022/06/11 06:48:42;;;;;;;21.20;6.78;;;;;;;21.21;62.51;100453.88;5094368;28;20093;-71
2022/06/11 06:51:10;;;;;;;15.85;5.50;;;;;;;21.26;62.44;100424.38;5094581;28;20074;-70
2022/06/11 06:53:39;;;;;;;19.38;6.75;;;;;;;21.76;62.46;100452.41;5095739;28;20573;-71
2022/06/11 06:56:06;;;;;;;24.52;7.10;;;;;;;22.08;61.79;100438.31;5096094;28;20502;-71
2022/06/11 06:58:34;;;;;;;30.80;7.95;;;;;;;22.66;61.44;100466.41;5094314;28;20052;-70
2022/06/11 07:01:02;;;;;;;30.45;7.57;;;;;;;23.04;60.24;100445.94;5080593;28;20072;-70
2022/06/11 07:03:29;;;;;;;22.17;9.98;;;;;;;23.61;59.34;100467.25;5075339;28;20080;-71
2022/06/11 07:05:56;;;;;;;27.42;10.48;;;;;;;23.89;58.64;100444.28;5075288;28;20059;-71
2022/06/11 07:08:23;;;;;;;31.13;13.23;;;;;;;24.21;58.07;100444.19;5073939;28;20079;-70
2022/06/11 07:10:52;;;;;;;22.55;8.93;;;;;;;24.67;57.50;100429.19;5075132;28;20127;-71
2022/06/11 07:13:20;;;;;;;21.85;8.75;;;;;;;25.04;56.61;100438.84;5075130;28;20079;-72
2022/06/11 07:15:50;;;;;;;32.25;10.40;;;;;;;25.33;55.93;100447.09;5079490;28;20131;-70
2022/06/11 07:18:30;;;;;;;31.73;11.57;;;;;;;25.59;55.73;100458.53;5078282;28;20466;-72
2022/06/11 07:20:59;;;;;;;;;;;;;;;25.75;56.36;100458.38;5075518;28;20083;-71
2022/06/11 07:23:33;;;;;;;18.30;7.38;;;;;;;25.90;55.22;100442.25;5075210;28;19978;-70
2022/06/11 07:26:04;;;;;;;21.70;8.32;;;;;;;26.05;54.68;100431.81;5074860;28;20131;-71
2022/06/11 07:28:37;;;;;;;17.77;5.72;;;;;;;26.48;54.10;100456.13;5075289;28;20076;-71
2022/06/11 07:31:04;;;;;;;21.17;6.28;;;;;;;26.80;53.45;100461.34;5074981;28;20570;-71
2022/06/11 07:33:31;;;;;;;18.10;5.85;;;;;;;26.99;52.79;100468.94;5074363;28;20128;-72
2022/06/11 07:35:58;;;;;;;20.67;5.75;;;;;;;27.32;52.15;100459.44;5074741;28;20088;-71
2022/06/11 07:38:27;;;;;;;18.27;9.68;;;;;;;27.61;51.52;100448.97;5074073;28;20047;-71
2022/06/11 07:40:54;;;;;;;15.48;5.80;;;;;;;27.82;50.93;100456.94;5074508;28;20131;-71
2022/06/11 07:43:21;;;;;;;18.65;5.63;;;;;;;27.96;50.64;100457.00;5074357;28;20095;-71
2022/06/11 07:45:48;;;;;;;11.27;5.40;;;;;;;28.15;50.26;100437.84;5074888;28;20130;-71
2022/06/11 07:48:17;;;;;;;16.98;4.15;;;;;;;28.44;49.56;100445.34;5074850;28;20048;-71
2022/06/11 07:50:48;;;;;;;15.13;5.40;;;;;;;28.63;48.70;100431.88;5074964;28;20084;-70
2022/06/11 07:53:17;;;;;;;25.00;6.07;;;;;;;28.79;48.83;100433.13;5074718;28;20048;-71
2022/06/11 07:55:47;;;;;;;15.82;6.25;;;;;;;28.95;48.12;100438.47;5056795;28;20076;-72
2022/06/11 07:58:17;;;;;;;14.82;6.05;;;;;;;29.19;47.81;100445.50;5074373;28;20096;-71
2022/06/11 08:00:50;;;;;;;21.65;5.35;;;;;;;29.37;46.92;100442.66;5074473;28;20127;-71
2022/06/11 08:03:18;;;;;;;15.45;5.50;;;;;;;29.46;47.52;100447.97;5074603;28;20096;-71
2022/06/11 08:05:46;;;;;;;18.23;5.43;;;;;;;29.54;47.29;100449.63;5073985;28;20044;-71
2022/06/11 08:08:14;;;;;;;16.63;5.25;;;;;;;29.71;46.90;100445.91;5073347;28;20542;-71
2022/06/11 08:10:43;;;;;;;16.40;5.03;;;;;;;29.90;46.04;100441.75;5073955;28;20537;-71
2022/06/11 08:13:10;;;;;;;19.13;6.63;;;;;;;30.02;46.30;100439.66;5074036;28;20499;-71
2022/06/11 08:15:40;;;;;;;19.97;5.60;;;;;;;30.05;45.63;100430.16;5072810;28;20044;-71
2022/06/11 08:18:07;;;;;;;19.38;6.25;;;;;;;30.21;45.92;100445.78;5073735;28;20756;-71
2022/06/11 08:20:37;;;;;;;15.90;5.63;;;;;;;30.20;45.73;100429.75;5073865;28;20101;-71
2022/06/11 08:23:05;;;;;;;18.65;6.07;;;;;;;30.35;45.73;100438.31;5074205;28;20454;-71
2022/06/11 08:25:33;;;;;;;17.95;5.60;;;;;;;30.51;44.98;100440.72;5074319;28;20048;-71
2022/06/11 08:28:00;;;;;;;21.58;6.40;;;;;;;30.36;45.42;100403.34;5073876;28;20127;-71
2022/06/11 08:30:30;;;;;;;16.58;5.53;;;;;;;30.72;45.35;100429.03;5073862;28;20076;-71
2022/06/11 08:32:57;;;;;;;19.48;6.25;;;;;;;30.77;45.13;100433.56;5074197;28;20075;-72
2022/06/11 08:35:27;;;;;;;11.95;5.20;;;;;;;30.88;44.66;100442.97;5073456;28;20503;-71
2022/06/11 08:37:54;;;;;;;15.85;5.15;;;;;;;30.91;44.39;100442.97;5072552;28;20063;-71
2022/06/11 08:40:43;;;;;;;15.82;6.10;;;;;;;31.10;44.41;100450.22;5073630;28;20199;-71
2022/06/11 08:43:09;;;;;;;17.98;5.22;;;;;;;31.21;44.77;100443.53;5073690;28;20462;-72
2022/06/11 08:45:43;;;;;;;13.30;6.22;;;;;;;31.27;44.03;100434.00;5073722;28;20132;-72
2022/06/11 08:48:23;;;;;;;14.65;5.43;;;;;;;31.31;44.10;100431.91;5073373;28;20044;-71
2022/06/11 08:51:24;;;;;;;14.77;5.75;;;;;;;31.37;44.27;100436.00;5087560;28;20135;-71
2022/06/11 08:53:55;;;;;;;14.02;4.97;;;;;;;31.52;43.75;100435.88;5092239;28;20522;-71
2022/06/11 08:56:44;;;;;;;11.10;5.38;;;;;;;31.61;43.98;100434.13;5092567;28;20472;-71
2022/06/11 08:59:30;;;;;;;12.88;5.97;;;;;;;31.76;44.07;100429.03;5082414;28;20090;-72
2022/06/11 09:02:09;;;;;;;12.50;5.75;;;;;;;31.92;43.29;100431.34;5071969;28;20052;-72
2022/06/11 09:05:13;;;;;;;14.20;5.85;;;;;;;31.97;43.23;100427.19;5071976;28;20058;-72
2022/06/11 09:08:10;;;;;;;13.18;5.68;;;;;;;32.03;43.53;100432.03;5072180;28;20079;-73
2022/06/11 09:11:04;;;;;;;12.02;4.70;;;;;;;31.99;43.00;100413.94;5071816;28;20048;-72
2022/06/11 09:13:46;;;;;;;14.75;5.97;;;;;;;32.33;42.57;100445.69;5052784;28;20144;-71
2022/06/11 09:16:25;;;;;;;13.98;5.40;;;;;;;32.47;42.73;100438.94;5072801;28;20172;-75
2022/06/11 09:19:07;;;;;;;11.15;5.32;;;;;;;32.67;42.23;100444.84;5071795;28;20530;-72
2022/06/11 09:21:41;;;;;;;10.80;5.22;;;;;;;32.84;41.96;100442.13;5092124;28;20420;-72
2022/06/11 09:24:19;;;;;;;14.85;5.22;;;;;;;33.08;41.69;100452.53;5093084;28;20455;-71
2022/06/11 09:27:00;;;;;;;11.95;4.78;;;;;;;32.94;41.72;100441.97;5093311;28;20166;-71
2022/06/11 09:29:40;;;;;;;15.30;6.43;;;;;;;32.51;42.10;100441.78;5091885;28;20161;-72
2022/06/11 09:32:07;;;;;;;13.43;6.10;;;;;;;32.07;42.30;100455.13;5093014;28;20087;-71
2022/06/11 09:34:40;;;;;;;11.60;5.53;;;;;;;31.73;43.02;100457.94;5073170;28;20156;-71
2022/06/11 09:37:14;;;;;;;11.38;5.82;;;;;;;31.79;42.91;100453.31;5072725;28;20084;-72
2022/06/11 09:39:53;;;;;;;9.38;5.05;;;;;;;31.89;42.62;100425.63;5072934;28;20131;-71
2022/06/11 09:42:48;;;;;;;17.33;7.40;;;;;;;32.31;42.73;100439.53;5072486;28;20135;-71
2022/06/11 09:45:36;;;;;;;13.77;5.88;;;;;;;32.61;42.17;100440.81;5073009;28;20128;-71
2022/06/11 09:48:41;;;;;;;10.82;5.22;;;;;;;32.86;41.84;100445.41;5073875;28;20045;-72
2022/06/11 09:51:29;;;;;;;10.38;5.43;;;;;;;33.02;41.39;100443.50;5089129;28;20513;-72
2022/06/11 09:54:16;;;;;;;15.02;5.15;;;;;;;33.19;41.30;100432.91;5093049;28;20130;-71
2022/06/11 09:57:06;;;;;;;10.02;5.55;;;;;;;33.42;41.27;100422.59;5092801;28;20080;-71
2022/06/11 09:59:52;;;;;;;12.85;5.85;;;;;;;33.56;40.84;100419.47;5096816;28;20133;-71
2022/06/11 10:05:25;;;;;;;11.63;6.07;;;;;;;33.76;40.65;100436.06;5100408;28;20048;-71
2022/06/11 10:08:06;;;;;;;8.75;4.72;;;;;;;33.92;40.29;100434.09;5099546;28;20475;-72
2022/06/11 10:10:39;;;;;;;13.05;5.80;;;;;;;33.88;40.02;100424.66;5080394;28;20090;-73
2022/06/11 10:13:21;;;;;;;11.55;5.65;;;;;;;34.00;39.80;100428.16;5079905;28;20049;-72
2022/06/11 10:15:48;;;;;;;8.82;5.05;;;;;;;34.11;39.77;100438.28;5080420;28;20063;-72
2022/06/11 10:18:26;;;;;;;11.18;5.22;;;;;;;34.11;39.88;100438.28;5097997;28;20047;-71
2022/06/11 10:21:03;;;;;;;20.27;6.35;;;;;;;33.89;40.24;100442.84;5096646;28;20129;-71
2022/06/11 10:23:45;;;;;;;16.30;5.63;;;;;;;33.88;40.24;100447.84;5093987;28;20084;-72
2022/06/11 10:26:25;;;;;;;9.48;4.95;;;;;;;34.04;39.79;100429.72;5076168;28;20103;-72
2022/06/11 10:29:07;;;;;;;14.60;5.22;;;;;;;34.06;39.79;100438.81;5076310;28;20053;-71
2022/06/11 10:31:58;;;;;;;12.70;5.30;;;;;;;34.17;39.80;100445.19;5076097;28;20052;-71
2022/06/11 10:34:27;;;;;;;10.13;5.05;;;;;;;34.29;39.52;100445.78;5056292;28;20147;-72
2022/06/11 10:36:56;;;;;;;18.42;6.60;;;;;;;34.40;39.14;100428.97;5075750;28;20091;-73
2022/06/11 10:40:08;;;;;;;19.73;5.85;;;;;;;34.49;39.12;100431.25;5075825;28;20151;-73
2022/06/11 10:42:58;;;;;;;10.65;4.75;;;;;;;34.32;39.32;100433.28;5053343;28;20397;-72
2022/06/11 10:45:25;;;;;;;15.88;5.45;;;;;;;34.23;39.21;100438.88;5037028;28;20086;-72
2022/06/11 10:47:55;;;;;;;9.07;4.65;;;;;;;34.19;39.00;100441.84;5075514;28;20503;-72
2022/06/11 10:50:28;;;;;;;18.60;5.93;;;;;;;33.78;39.77;100398.78;5074549;28;20255;-72
2022/06/11 10:53:04;;;;;;;12.82;5.20;;;;;;;34.13;39.55;100452.34;5075752;28;20087;-72
2022/06/11 10:55:45;;;;;;;11.30;4.25;;;;;;;34.04;39.58;100428.91;5074662;28;20048;-71
2022/06/11 10:58:37;;;;;;;18.95;5.63;;;;;;;34.07;39.32;100434.63;5081325;28;20080;-71
2022/06/11 11:01:12;;;;;;;10.60;5.85;;;;;;;34.23;39.31;100436.00;5075698;28;20132;-72
2022/06/11 11:03:46;;;;;;;11.63;5.55;;;;;;;34.25;39.30;100411.06;5075541;28;20080;-72
2022/06/11 11:06:26;;;;;;;14.02;6.63;;;;;;;34.43;39.44;100416.50;5075607;28;20079;-72
2022/06/11 11:08:58;;;;;;;12.93;5.80;;;;;;;34.24;39.44;100421.03;5074593;28;20044;-72
2022/06/11 11:11:27;;;;;;;15.30;5.55;;;;;;;34.14;39.73;100411.31;5075379;28;20098;-72
2022/06/11 11:14:14;;;;;;;14.57;5.65;;;;;;;34.23;39.25;100418.59;5074210;28;20071;-72
2022/06/11 11:16:47;;;;;;;11.85;4.55;;;;;;;34.06;39.15;100400.31;5075753;28;20126;-71
2022/06/11 11:19:23;;;;;;;13.98;5.10;;;;;;;34.15;39.62;100423.69;5075713;28;20472;-71
2022/06/11 11:22:07;;;;;;;8.25;4.03;;;;;;;34.25;39.24;100418.94;5075525;28;20127;-72
2022/06/11 11:24:54;;;;;;;11.85;5.43;;;;;;;34.13;39.49;100406.78;5075006;28;20076;-71
2022/06/11 11:27:31;;;;;;;13.90;4.95;;;;;;;34.37;39.10;100407.50;5073780;28;20586;-72
2022/06/11 11:30:14;;;;;;;13.52;5.68;;;;;;;34.65;39.04;100413.94;5075300;28;20123;-71
2022/06/11 11:32:46;;;;;;;12.80;4.85;;;;;;;34.95;38.72;100414.91;5074926;28;20519;-71
2022/06/11 11:35:28;;;;;;;17.88;5.03;;;;;;;35.07;37.93;100409.19;5073688;28;20139;-72
2022/06/11 11:38:02;;;;;;;14.10;4.53;;;;;;;34.78;38.46;100411.97;5073945;28;20095;-72
2022/06/11 11:40:30;;;;;;;17.23;4.72;;;;;;;34.77;38.37;100419.06;5073817;28;20052;-70
2022/06/11 11:43:03;;;;;;;10.15;4.07;;;;;;;34.90;38.12;100413.31;5075129;28;20124;-72
2022/06/11 11:45:57;;;;;;;8.48;4.57;;;;;;;34.56;38.66;100416.63;5074882;28;20079;-71
2022/06/11 11:48:33;;;;;;;10.20;4.35;;;;;;;34.70;38.65;100427.06;5064659;28;20087;-72
2022/06/11 11:51:07;;;;;;;10.48;4.63;;;;;;;34.94;37.78;100408.25;5074558;28;20479;-72
2022/06/11 11:53:47;;;;;;;11.40;4.70;;;;;;;35.18;37.54;100413.91;5074562;28;20086;-71